sim
Sign-in with your pilot id or email,
or register
Callsign
Passwort

Schedule Details

Flight Number: UAE512
Departure: Dubai International Airport (OMDB) at 18:00
Arrival: Delhi Indira Gandhi International Airport (VIDP) at 21:10
Route: Emirates Passenger Schedule. Enter filed route here before submitting Pirep.

Weather Information
Getting current METAR information for OMDB 312100Z 10003KT 050V140 6000 NSC 25/22 Q1015 NOSIG
Getting current METAR information for VIDP 312100Z 00000KT 1200 R28/2000 R29/2000 FU NSC 17/11 Q1013 NOSIG

Schedule Frequency

Route Map